createdAt,value
2018-10-02T00:01:04.420Z,91.20
2018-10-02T00:03:33.114Z,91.60
2018-10-02T00:06:01.570Z,91.80
2018-10-02T00:08:30.069Z,91.70
2018-10-02T00:11:03.780Z,90.90
2018-10-02T00:13:37.540Z,90.90
2018-10-02T00:16:06.093Z,90.80
2018-10-02T00:18:34.572Z,91.40
2018-10-02T00:21:02.972Z,91.70
2018-10-02T00:23:31.472Z,91.00
2018-10-02T00:25:59.941Z,91.50
2018-10-02T00:28:28.325Z,91.80
2018-10-02T00:30:57.703Z,91.80
2018-10-02T00:33:26.112Z,91.90
2018-10-02T00:35:54.538Z,92.00
2018-10-02T00:38:22.975Z,92.30
2018-10-02T00:40:51.515Z,92.00
2018-10-02T00:43:19.974Z,92.30
2018-10-02T00:45:48.646Z,92.20
2018-10-02T00:48:17.123Z,92.40
2018-10-02T00:50:45.583Z,91.70
2018-10-02T00:53:14.013Z,92.30
2018-10-02T00:55:42.705Z,92.30
2018-10-02T00:58:11.143Z,91.60
2018-10-02T01:00:39.700Z,91.90
2018-10-02T01:03:08.216Z,92.30
2018-10-02T01:05:36.643Z,92.50
2018-10-02T01:08:05.112Z,92.60
2018-10-02T01:10:33.572Z,92.60
2018-10-02T01:13:02.024Z,92.20
2018-10-02T01:15:30.583Z,92.90
2018-10-02T01:17:59.004Z,92.50
2018-10-02T01:20:27.547Z,92.60
2018-10-02T01:22:55.990Z,92.70
2018-10-02T01:25:24.393Z,92.30
2018-10-02T01:27:52.869Z,92.20
2018-10-02T01:30:21.265Z,93.10
2018-10-02T01:32:49.795Z,93.00
2018-10-02T01:35:18.225Z,93.00
2018-10-02T01:37:46.702Z,92.90
2018-10-02T01:40:15.747Z,93.50
2018-10-02T01:42:44.186Z,93.50
2018-10-02T01:45:12.660Z,93.10
2018-10-02T01:47:41.092Z,93.30
2018-10-02T01:50:10.132Z,93.70
2018-10-02T01:52:38.558Z,93.40
2018-10-02T01:55:06.984Z,93.80
2018-10-02T01:57:35.436Z,93.70
2018-10-02T02:00:05.148Z,94.20
2018-10-02T02:02:33.754Z,94.60
2018-10-02T02:05:02.293Z,94.70
2018-10-02T02:07:30.779Z,94.40
2018-10-02T02:09:59.204Z,94.60
2018-10-02T02:12:27.721Z,94.40
2018-10-02T02:14:56.124Z,94.60
2018-10-02T02:17:24.605Z,94.60
2018-10-02T02:19:53.072Z,94.50
2018-10-02T02:22:21.547Z,94.70
2018-10-02T02:24:49.976Z,95.00
2018-10-02T02:27:18.380Z,95.30
2018-10-02T02:29:46.964Z,95.70
2018-10-02T02:32:15.699Z,95.30
2018-10-02T02:34:44.129Z,95.70
2018-10-02T02:37:12.592Z,95.50
2018-10-02T02:39:41.021Z,95.80
2018-10-02T02:42:09.416Z,96.00
2018-10-02T02:44:37.990Z,95.90
2018-10-02T02:47:12.074Z,96.40
2018-10-02T02:49:45.636Z,96.40
2018-10-02T02:52:14.889Z,96.60
2018-10-02T02:54:47.000Z,97.20
2018-10-02T02:57:15.656Z,96.80
2018-10-02T02:59:44.125Z,96.80
2018-10-02T03:02:12.508Z,96.70
2018-10-02T03:04:42.065Z,96.60
2018-10-02T03:07:10.494Z,96.80
2018-10-02T03:09:38.972Z,97.00
2018-10-02T03:12:07.586Z,96.80
2018-10-02T03:14:36.053Z,96.80
2018-10-02T03:17:04.676Z,96.50
2018-10-02T03:19:33.159Z,96.60
2018-10-02T03:22:01.558Z,96.50
2018-10-02T03:24:30.048Z,96.60
2018-10-02T03:26:58.967Z,96.80
2018-10-02T03:29:27.588Z,96.50
2018-10-02T03:31:56.084Z,96.50
2018-10-02T03:34:24.519Z,96.10
2018-10-02T03:36:53.324Z,96.40
2018-10-02T03:39:21.769Z,96.90
2018-10-02T03:41:50.237Z,97.50
2018-10-02T03:44:19.012Z,97.70
2018-10-02T03:51:47.851Z,98.60
2018-10-02T03:54:16.329Z,99.50
2018-10-02T03:56:45.849Z,99.00
2018-10-02T03:59:14.237Z,98.50
2018-10-02T04:01:43.056Z,98.20
2018-10-02T04:04:11.740Z,97.90
2018-10-02T04:06:40.226Z,98.20
2018-10-02T04:09:11.161Z,98.00
2018-10-02T04:11:39.600Z,97.70
2018-10-02T04:14:08.666Z,97.40
2018-10-02T04:16:37.104Z,97.00
2018-10-02T04:19:05.612Z,97.10
2018-10-02T04:21:35.110Z,97.10
2018-10-02T04:24:05.127Z,97.10
2018-10-02T04:26:35.286Z,97.20
2018-10-02T04:29:04.403Z,96.70
2018-10-02T04:31:34.271Z,95.60
2018-10-02T04:34:02.853Z,95.00
2018-10-02T04:36:31.627Z,95.90
2018-10-02T04:39:00.148Z,95.90
2018-10-02T04:41:28.698Z,96.00
2018-10-02T04:43:57.132Z,96.30
2018-10-02T04:46:25.582Z,96.60
2018-10-02T04:48:54.036Z,96.70
2018-10-02T04:51:22.508Z,96.70
2018-10-02T04:53:50.949Z,97.00
2018-10-02T04:56:19.533Z,96.70
2018-10-02T04:58:47.884Z,96.70
2018-10-02T05:01:16.335Z,96.70
2018-10-02T05:03:44.795Z,96.70
2018-10-02T05:06:13.305Z,96.80
2018-10-02T05:08:41.724Z,96.50
2018-10-02T05:11:10.699Z,96.80
2018-10-02T05:13:39.095Z,96.90
2018-10-02T05:16:07.595Z,97.10
2018-10-02T05:18:36.136Z,97.30
2018-10-02T05:21:04.529Z,97.30
2018-10-02T05:23:32.953Z,97.30
2018-10-02T05:26:02.309Z,97.00
2018-10-02T05:28:30.788Z,97.50
2018-10-02T05:30:59.225Z,97.70
2018-10-02T05:33:27.636Z,97.70
2018-10-02T05:35:57.033Z,97.70
2018-10-02T05:38:25.448Z,97.70
2018-10-02T05:40:53.884Z,97.60
2018-10-02T05:43:22.341Z,97.80
2018-10-02T05:45:51.837Z,98.10
2018-10-02T05:48:20.333Z,98.00
2018-10-02T05:50:48.942Z,97.90
2018-10-02T05:53:17.383Z,97.70
2018-10-02T05:55:46.845Z,97.60
2018-10-02T05:58:15.387Z,97.90
2018-10-02T06:00:43.884Z,97.60
2018-10-02T06:03:12.414Z,97.60
2018-10-02T06:05:40.902Z,97.60
2018-10-02T06:08:09.397Z,97.10
2018-10-02T06:10:37.820Z,96.70
2018-10-02T06:13:06.397Z,96.60
2018-10-02T06:15:35.044Z,96.20
2018-10-02T06:18:03.479Z,96.00
2018-10-02T06:20:31.896Z,95.70
2018-10-02T06:23:00.331Z,95.10
2018-10-02T06:25:28.744Z,95.20
2018-10-02T06:27:57.269Z,95.00
2018-10-02T06:30:25.771Z,94.90
2018-10-02T06:32:54.167Z,94.90
2018-10-02T06:35:24.397Z,94.90
2018-10-02T06:37:52.989Z,94.50
2018-10-02T06:40:22.288Z,94.20
2018-10-02T06:42:50.744Z,93.90
2018-10-02T06:45:19.167Z,93.10
2018-10-02T06:47:47.675Z,93.10
2018-10-02T06:50:18.984Z,93.10
2018-10-02T06:52:47.565Z,91.90
2018-10-02T06:55:16.485Z,91.60
2018-10-02T06:57:46.191Z,91.70
2018-10-02T07:00:15.682Z,91.50
2018-10-02T07:02:44.180Z,91.40
2018-10-02T07:05:12.765Z,91.40
2018-10-02T07:07:41.232Z,91.10
2018-10-02T07:10:12.911Z,91.80
2018-10-02T07:12:52.221Z,92.60
2018-10-02T07:15:21.840Z,91.80
2018-10-02T07:17:50.641Z,91.20
2018-10-02T07:20:21.134Z,91.30
2018-10-02T07:22:50.810Z,92.30
2018-10-02T07:25:20.631Z,91.90
2018-10-02T07:27:51.050Z,90.50
2018-10-02T07:30:21.237Z,90.50
2018-10-02T07:32:50.971Z,90.60
2018-10-02T07:35:20.456Z,90.40
2018-10-02T07:37:49.146Z,90.10
2018-10-02T07:40:19.550Z,90.10
2018-10-02T07:42:48.014Z,90.80
2018-10-02T07:45:16.473Z,90.40
2018-10-02T07:47:44.999Z,90.00
2018-10-02T07:50:14.103Z,90.60
2018-10-02T07:52:43.548Z,91.00
2018-10-02T07:55:12.250Z,91.20
2018-10-02T07:57:40.822Z,90.30
2018-10-02T08:00:09.457Z,90.60
2018-10-02T08:02:37.733Z,91.00
2018-10-02T08:05:06.290Z,90.20
2018-10-02T08:07:34.650Z,91.30
2018-10-02T08:10:08.396Z,91.60
2018-10-02T08:12:39.412Z,91.20
2018-10-02T08:15:07.916Z,90.60
2018-10-02T08:17:36.732Z,90.50
2018-10-02T08:20:05.300Z,92.00
2018-10-02T08:22:33.829Z,92.30
2018-10-02T08:25:02.282Z,92.60
2018-10-02T08:27:30.722Z,94.50
2018-10-02T08:29:59.544Z,92.90
2018-10-02T08:32:28.070Z,93.20
2018-10-02T08:39:52.737Z,93.50
2018-10-02T08:42:21.134Z,94.40
2018-10-02T08:44:49.827Z,95.10
2018-10-02T08:47:18.257Z,96.20
2018-10-02T08:49:46.868Z,95.50
2018-10-02T08:52:17.359Z,96.20
2018-10-02T08:54:46.516Z,96.40
2018-10-02T08:57:16.865Z,96.10
2018-10-02T08:59:45.727Z,95.80
2018-10-02T09:02:14.218Z,94.40
2018-10-02T09:04:42.720Z,94.80
2018-10-02T09:07:11.156Z,95.90
2018-10-02T09:09:39.670Z,94.00
2018-10-02T09:12:08.981Z,94.10
2018-10-02T09:14:37.532Z,93.40
2018-10-02T09:17:12.753Z,93.80
2018-10-02T09:19:41.214Z,94.10
2018-10-02T09:22:09.641Z,95.00
2018-10-02T09:24:38.131Z,95.10
2018-10-02T09:27:06.663Z,95.60
2018-10-02T09:29:39.352Z,94.30
2018-10-02T09:32:13.061Z,95.40
2018-10-02T09:34:47.483Z,95.10
2018-10-02T09:38:21.376Z,95.10
2018-10-02T09:40:55.164Z,94.90
2018-10-02T09:43:31.009Z,95.40
2018-10-02T09:45:59.933Z,96.20
2018-10-02T09:48:29.397Z,95.60
2018-10-02T09:50:57.882Z,96.80
2018-10-02T09:53:26.277Z,96.20
2018-10-02T09:55:54.675Z,97.10
2018-10-02T09:58:23.139Z,95.90
2018-10-02T10:00:57.001Z,95.60
2018-10-02T10:03:25.329Z,94.90
2018-10-02T10:05:53.716Z,95.60
2018-10-02T10:08:22.157Z,95.70
2018-10-02T10:10:50.560Z,95.80
2018-10-02T10:13:19.318Z,96.20
2018-10-02T10:15:47.708Z,95.50
2018-10-02T10:18:16.177Z,94.20
2018-10-02T10:20:44.688Z,94.40
2018-10-02T10:23:15.397Z,93.90
2018-10-02T10:25:45.208Z,93.30
2018-10-02T10:28:13.640Z,93.60
2018-10-02T10:30:44.797Z,95.00
2018-10-02T10:33:15.041Z,95.60
2018-10-02T10:35:43.596Z,95.70
2018-10-02T10:38:13.530Z,95.50
2018-10-02T10:40:42.141Z,96.10
2018-10-02T10:43:10.669Z,96.50
2018-10-02T10:45:39.594Z,97.20
2018-10-02T10:48:08.103Z,96.70
2018-10-02T10:50:36.675Z,96.30
2018-10-02T10:53:05.253Z,96.70
2018-10-02T10:55:35.187Z,95.90
2018-10-02T10:58:03.786Z,96.00
2018-10-02T11:00:32.276Z,95.80
2018-10-02T11:03:01.798Z,94.70
2018-10-02T11:05:30.633Z,94.50
2018-10-02T11:07:59.161Z,93.60
2018-10-02T11:10:27.618Z,94.20
2018-10-02T11:12:56.072Z,93.50
2018-10-02T11:15:26.022Z,93.60
2018-10-02T11:17:54.501Z,93.90
2018-10-02T11:20:27.052Z,92.70
2018-10-02T11:22:55.537Z,92.60
2018-10-02T11:25:28.280Z,92.60
2018-10-02T11:27:56.959Z,93.30
2018-10-02T11:30:25.505Z,93.60
2018-10-02T11:32:54.634Z,92.60
2018-10-02T11:35:23.266Z,93.50
2018-10-02T11:37:52.176Z,93.50
2018-10-02T11:40:20.586Z,94.50
2018-10-02T11:42:52.031Z,95.80
2018-10-02T11:45:20.516Z,96.30
2018-10-02T11:47:48.917Z,97.00
2018-10-02T11:50:17.393Z,98.00
2018-10-02T11:52:45.888Z,98.70
2018-10-02T11:55:14.408Z,99.80
2018-10-02T11:57:43.664Z,99.80
2018-10-02T12:00:12.724Z,99.80
2018-10-02T12:02:41.303Z,99.80
2018-10-02T12:05:09.644Z,99.80
2018-10-02T12:07:38.661Z,99.80
2018-10-02T12:10:07.508Z,99.80
2018-10-02T12:12:36.553Z,99.80
2018-10-02T12:15:05.499Z,99.80
2018-10-02T12:17:34.448Z,99.80
2018-10-02T12:20:03.316Z,99.80
2018-10-02T12:22:31.882Z,99.80
2018-10-02T12:25:00.629Z,99.80
2018-10-02T12:27:29.429Z,99.80
2018-10-02T12:29:58.486Z,99.80
2018-10-02T12:32:26.965Z,99.80
2018-10-02T12:34:55.380Z,99.80
2018-10-02T12:37:24.087Z,99.80
2018-10-02T12:39:52.530Z,99.80
2018-10-02T12:42:21.109Z,99.80
2018-10-02T12:44:49.876Z,99.80
2018-10-02T12:47:18.296Z,99.80
2018-10-02T12:49:47.206Z,99.80
2018-10-02T12:52:16.043Z,99.80
2018-10-02T12:54:44.470Z,99.80
2018-10-02T12:57:13.040Z,99.80
2018-10-02T12:59:42.423Z,99.80
2018-10-02T13:02:10.952Z,99.80
2018-10-02T13:04:39.449Z,99.80
2018-10-02T13:07:07.767Z,99.80
2018-10-02T13:09:36.290Z,99.80
2018-10-02T13:12:04.781Z,99.80
2018-10-02T13:14:33.177Z,99.80
2018-10-02T13:17:01.550Z,99.80
2018-10-02T13:19:31.024Z,99.80
2018-10-02T13:21:59.438Z,99.80
2018-10-02T13:24:27.875Z,99.80
2018-10-02T13:26:56.364Z,99.80
2018-10-02T13:29:24.779Z,99.80
2018-10-02T13:31:53.233Z,99.80
2018-10-02T13:34:21.663Z,99.80
2018-10-02T13:36:50.385Z,99.80
2018-10-02T13:39:18.867Z,99.80
2018-10-02T13:41:47.327Z,99.80
2018-10-02T13:44:16.055Z,99.80
2018-10-02T13:46:44.984Z,99.80
2018-10-02T13:49:13.649Z,99.80
2018-10-02T13:51:42.129Z,99.80
2018-10-02T13:54:10.915Z,99.80
2018-10-02T13:56:39.437Z,99.80
2018-10-02T13:59:07.844Z,99.80
2018-10-02T14:01:36.885Z,99.80
2018-10-02T14:04:05.580Z,99.80
2018-10-02T14:06:34.000Z,99.80
2018-10-02T14:09:02.583Z,99.80
2018-10-02T14:11:31.006Z,99.80
2018-10-02T14:13:59.456Z,99.80
2018-10-02T14:16:27.944Z,99.80
2018-10-02T14:18:56.388Z,99.80
2018-10-02T14:21:24.920Z,99.80
2018-10-02T14:23:59.825Z,99.80
2018-10-02T14:26:28.346Z,99.80
2018-10-02T14:28:56.837Z,99.80
2018-10-02T14:31:25.352Z,99.80
2018-10-02T14:33:53.780Z,99.80
2018-10-02T14:36:22.211Z,99.80
2018-10-02T14:38:50.752Z,99.80
2018-10-02T14:41:19.234Z,99.80
2018-10-02T14:43:47.684Z,99.80
2018-10-02T14:46:16.104Z,99.80
2018-10-02T14:53:39.231Z,99.80
2018-10-02T14:56:07.646Z,99.80
2018-10-02T14:58:36.136Z,99.80
2018-10-02T15:01:04.579Z,99.80
2018-10-02T15:03:33.058Z,99.80
2018-10-02T15:06:01.530Z,99.80
2018-10-02T15:08:30.093Z,99.80
2018-10-02T15:10:58.578Z,99.80
2018-10-02T15:13:27.068Z,99.80
2018-10-02T15:15:55.618Z,99.80
2018-10-02T15:18:24.030Z,99.80
2018-10-02T15:20:52.534Z,99.80
2018-10-02T15:23:21.009Z,99.80
2018-10-02T15:25:49.580Z,99.80
2018-10-02T15:28:18.011Z,99.80
2018-10-02T15:30:46.472Z,99.80
2018-10-02T15:33:14.911Z,99.80
2018-10-02T15:35:43.452Z,99.80
2018-10-02T15:38:12.344Z,99.80
2018-10-02T15:40:41.263Z,99.80
2018-10-02T15:43:10.017Z,99.80
2018-10-02T15:45:42.531Z,99.80
2018-10-02T15:48:12.622Z,99.80
2018-10-02T16:18:01.525Z,99.80
2018-10-02T16:20:29.904Z,99.80
2018-10-02T16:22:58.332Z,99.80
2018-10-02T16:25:27.125Z,99.80
2018-10-02T16:27:56.314Z,99.80
2018-10-02T16:30:24.815Z,99.80
2018-10-02T16:32:53.232Z,99.80
2018-10-02T16:35:21.781Z,99.80
2018-10-02T16:37:50.328Z,99.80
2018-10-02T16:40:18.778Z,99.80
2018-10-02T16:42:47.175Z,99.80
2018-10-02T16:45:16.184Z,99.80
2018-10-02T16:47:44.601Z,99.80
2018-10-02T16:50:12.988Z,99.80
2018-10-02T16:52:41.385Z,99.80
2018-10-02T16:55:09.821Z,99.80
2018-10-02T16:57:38.550Z,99.80
2018-10-02T17:00:08.412Z,99.80
2018-10-02T17:02:36.898Z,99.80
2018-10-02T17:05:05.408Z,99.80
2018-10-02T17:07:33.881Z,99.80
2018-10-02T17:10:02.454Z,99.80
2018-10-02T17:12:30.987Z,99.80
2018-10-02T17:14:59.409Z,99.80
2018-10-02T17:17:27.876Z,99.80
2018-10-02T17:19:56.345Z,99.80
2018-10-02T17:22:25.100Z,99.80
2018-10-02T17:24:54.236Z,99.80
2018-10-02T17:27:23.533Z,99.80
2018-10-02T17:29:51.994Z,99.80
2018-10-02T17:32:20.628Z,99.80
2018-10-02T17:34:49.121Z,99.80
2018-10-02T17:37:17.613Z,99.80
2018-10-02T17:39:46.069Z,99.80
2018-10-02T17:42:14.564Z,99.80
2018-10-02T17:44:43.128Z,99.80
2018-10-02T17:47:11.600Z,99.80
2018-10-02T17:49:40.055Z,99.80
2018-10-02T17:52:08.942Z,99.80
2018-10-02T17:54:37.445Z,99.80
2018-10-02T17:57:05.948Z,99.80
2018-10-02T17:59:34.412Z,99.80
2018-10-02T18:02:02.812Z,99.80
2018-10-02T18:04:31.219Z,99.80
2018-10-02T18:06:59.646Z,99.80
2018-10-02T18:09:28.067Z,99.80
2018-10-02T18:12:03.146Z,99.80
2018-10-02T18:14:32.078Z,99.80
2018-10-02T18:17:00.566Z,99.80
2018-10-02T18:19:29.061Z,99.80
2018-10-02T18:21:57.569Z,99.80
2018-10-02T18:24:25.996Z,99.80
2018-10-02T18:26:54.490Z,99.80
2018-10-02T18:29:23.027Z,99.80
2018-10-02T18:31:51.571Z,99.80
2018-10-02T18:34:20.057Z,99.80
2018-10-02T18:36:48.483Z,99.80
2018-10-02T18:39:16.957Z,99.80
2018-10-02T18:41:45.393Z,99.80
2018-10-02T18:44:13.993Z,99.80
2018-10-02T18:46:42.705Z,99.80
2018-10-02T18:49:11.425Z,99.80
2018-10-02T18:51:39.869Z,99.80
2018-10-02T18:54:08.384Z,99.80
2018-10-02T18:56:36.884Z,99.80
2018-10-02T18:59:05.367Z,99.80
2018-10-02T19:01:34.605Z,99.80
2018-10-02T19:04:04.095Z,99.80
2018-10-02T19:06:32.645Z,99.80
2018-10-02T19:09:06.472Z,99.80
2018-10-02T19:11:40.185Z,99.80
2018-10-02T19:14:08.747Z,99.80
2018-10-02T19:16:37.369Z,99.80
2018-10-02T19:19:09.714Z,99.80
2018-10-02T19:21:38.259Z,99.80
2018-10-02T19:24:06.870Z,99.80
2018-10-02T19:26:35.535Z,99.80
2018-10-02T19:29:04.085Z,99.80
2018-10-02T19:31:37.790Z,99.80
2018-10-02T19:34:06.430Z,99.80
2018-10-02T19:36:35.004Z,99.80
2018-10-02T19:39:09.206Z,99.80
2018-10-02T19:41:37.897Z,99.80
2018-10-02T19:44:06.779Z,99.80
2018-10-02T19:46:41.536Z,99.80
2018-10-02T19:49:24.192Z,99.80
2018-10-02T19:52:06.022Z,99.80
2018-10-02T19:54:34.853Z,99.80
2018-10-02T19:57:03.488Z,99.80
2018-10-02T19:59:41.176Z,99.80
2018-10-02T20:02:09.663Z,99.80
2018-10-02T20:04:38.477Z,99.80
2018-10-02T20:07:07.078Z,99.80
2018-10-02T20:09:35.516Z,99.80
2018-10-02T20:12:04.009Z,99.80
2018-10-02T20:14:32.716Z,99.80
2018-10-02T20:17:01.312Z,99.80
2018-10-02T20:19:30.813Z,99.80
2018-10-02T20:21:59.331Z,99.80
2018-10-02T20:24:27.858Z,99.80
2018-10-02T20:26:56.340Z,99.80
2018-10-02T20:29:24.787Z,99.80
2018-10-02T20:31:53.644Z,99.80
2018-10-02T20:34:22.116Z,99.80
2018-10-02T20:36:50.685Z,99.80
2018-10-02T20:39:20.425Z,99.80
2018-10-02T20:41:48.895Z,99.80
2018-10-02T20:44:17.486Z,99.80
2018-10-02T20:46:45.968Z,99.80
2018-10-02T20:49:14.516Z,99.80
2018-10-02T20:51:42.969Z,99.80
2018-10-02T20:54:11.404Z,99.80
2018-10-02T20:56:40.005Z,99.80
2018-10-02T20:59:08.755Z,99.80
2018-10-02T21:01:37.568Z,99.80
2018-10-02T21:04:06.061Z,99.80
2018-10-02T21:06:34.775Z,99.80
2018-10-02T21:09:03.760Z,99.80
2018-10-02T21:11:32.238Z,99.80
2018-10-02T21:14:00.653Z,99.80
2018-10-02T21:16:29.129Z,99.80
2018-10-02T21:18:57.711Z,99.80
2018-10-02T21:21:26.181Z,99.80
2018-10-02T21:23:54.655Z,99.80
2018-10-02T21:26:23.176Z,99.80
2018-10-02T21:28:51.877Z,99.80
2018-10-02T21:31:20.414Z,99.80
2018-10-02T21:36:17.073Z,99.80
2018-10-02T21:38:46.449Z,99.80
2018-10-02T21:41:14.882Z,99.80
2018-10-02T21:43:43.631Z,99.80
2018-10-02T21:46:12.117Z,99.80
2018-10-02T21:48:40.788Z,99.80
2018-10-02T21:51:09.448Z,99.80
2018-10-02T21:53:39.404Z,99.80
2018-10-02T21:56:07.801Z,99.80
2018-10-02T21:58:36.264Z,99.80
2018-10-02T22:01:06.086Z,99.80
2018-10-02T22:03:37.273Z,99.80
2018-10-02T22:06:07.714Z,99.80
2018-10-02T22:08:36.555Z,99.80
2018-10-02T22:11:05.103Z,99.80
2018-10-02T22:13:35.758Z,99.80
2018-10-02T22:16:06.967Z,99.80
2018-10-02T22:18:35.500Z,99.80
2018-10-02T22:21:03.941Z,99.80
2018-10-02T22:23:32.651Z,99.80
2018-10-02T22:26:01.127Z,99.80
2018-10-02T22:28:29.643Z,99.80
2018-10-02T22:30:58.089Z,99.80
2018-10-02T22:33:26.592Z,99.80
2018-10-02T22:35:58.300Z,99.80
2018-10-02T22:38:26.890Z,99.80
2018-10-02T22:40:55.388Z,99.80
2018-10-02T22:43:23.807Z,99.80
2018-10-02T22:45:52.260Z,99.80
2018-10-02T22:48:20.704Z,99.80
2018-10-02T22:50:49.508Z,99.80
2018-10-02T22:53:17.964Z,99.80
2018-10-02T22:55:46.461Z,99.80
2018-10-02T22:58:14.968Z,99.80
2018-10-02T23:00:43.564Z,99.80
2018-10-02T23:03:14.843Z,99.80
2018-10-02T23:05:43.471Z,99.80
2018-10-02T23:08:15.568Z,99.80
2018-10-02T23:15:41.976Z,99.80
2018-10-02T23:18:14.579Z,99.80
2018-10-02T23:20:45.013Z,99.80
2018-10-02T23:23:15.172Z,99.80
2018-10-02T23:25:43.643Z,99.80
2018-10-02T23:28:15.796Z,99.80
2018-10-02T23:30:46.171Z,99.80
2018-10-02T23:33:15.147Z,99.80
2018-10-02T23:35:43.576Z,99.80
2018-10-02T23:38:14.621Z,99.80
2018-10-02T23:40:47.449Z,99.80
2018-10-02T23:43:24.438Z,99.80
2018-10-02T23:45:53.013Z,99.80
2018-10-02T23:48:21.440Z,99.80
2018-10-02T23:50:51.731Z,99.80
2018-10-02T23:53:20.161Z,99.80
2018-10-02T23:55:52.233Z,99.80
2018-10-02T23:58:23.012Z,99.80
